createdAt,value
2022-12-08T00:01:35.898Z,16.73
2022-12-08T00:04:05.604Z,11.88
2022-12-08T00:06:53.936Z,14.43
2022-12-08T00:09:23.956Z,11.80
2022-12-08T00:12:03.085Z,14.23
2022-12-08T00:14:34.179Z,12.65
2022-12-08T00:17:03.389Z,12.43
2022-12-08T00:19:32.060Z,14.35
2022-12-08T00:22:00.443Z,14.93
2022-12-08T00:24:32.302Z,14.82
2022-12-08T00:27:00.377Z,13.05
2022-12-08T00:29:28.595Z,12.80
2022-12-08T00:31:58.006Z,14.27
2022-12-08T00:34:26.284Z,14.20
2022-12-08T00:36:54.405Z,15.05
2022-12-08T00:39:22.428Z,23.25
2022-12-08T00:42:08.264Z,20.80
2022-12-08T00:44:36.317Z,15.98
2022-12-08T00:47:06.088Z,16.05
2022-12-08T00:49:34.119Z,14.07
2022-12-08T00:52:02.601Z,13.15
2022-12-08T00:54:30.861Z,13.60
2022-12-08T00:56:59.033Z,15.32
2022-12-08T00:59:27.084Z,13.60
2022-12-08T01:01:55.173Z,13.15
2022-12-08T01:04:24.589Z,13.93
2022-12-08T01:06:52.978Z,13.60
2022-12-08T01:09:21.231Z,13.52
2022-12-08T01:11:49.418Z,13.35
2022-12-08T01:14:17.420Z,13.63
2022-12-08T01:16:45.733Z,14.10
2022-12-08T01:19:15.641Z,13.57
2022-12-08T01:21:46.151Z,12.88
2022-12-08T01:24:17.054Z,13.80
2022-12-08T01:26:45.546Z,13.80
2022-12-08T01:29:13.935Z,13.60
2022-12-08T01:31:42.101Z,13.05
2022-12-08T01:34:11.262Z,13.82
2022-12-08T01:36:40.041Z,13.05
2022-12-08T01:39:14.446Z,13.73
2022-12-08T01:41:43.613Z,10.80
2022-12-08T01:45:03.609Z,15.65
2022-12-08T01:47:38.404Z,15.88
2022-12-08T01:50:09.716Z,14.68
2022-12-08T01:52:41.742Z,13.57
2022-12-08T01:55:17.530Z,14.10
2022-12-08T01:57:50.061Z,13.20
2022-12-08T02:00:20.294Z,13.27
2022-12-08T02:02:55.309Z,12.75
2022-12-08T02:05:27.180Z,13.63
2022-12-08T02:07:56.330Z,12.45
2022-12-08T02:10:30.386Z,15.27
2022-12-08T02:13:00.113Z,15.45
2022-12-08T02:15:34.857Z,20.83
2022-12-08T02:18:14.040Z,14.05
2022-12-08T02:20:53.869Z,12.73
2022-12-08T02:23:32.761Z,14.05
2022-12-08T02:26:42.429Z,13.70
2022-12-08T02:29:35.533Z,13.65
2022-12-08T02:32:23.399Z,16.20
2022-12-08T02:34:58.496Z,14.02
2022-12-08T02:37:30.711Z,15.68
2022-12-08T02:40:06.911Z,13.63
2022-12-08T02:42:40.965Z,15.52
2022-12-08T02:45:15.810Z,13.50
2022-12-08T02:47:45.088Z,8.88
2022-12-08T02:50:14.556Z,10.77
2022-12-08T02:52:45.164Z,8.02
2022-12-08T02:55:21.917Z,10.23
2022-12-08T02:58:12.929Z,9.70
2022-12-08T03:00:58.151Z,10.73
2022-12-08T03:03:35.852Z,10.38
2022-12-08T03:06:14.976Z,9.98
2022-12-08T03:08:51.140Z,11.63
2022-12-08T03:11:25.367Z,8.98
2022-12-08T03:13:57.034Z,8.00
2022-12-08T03:16:27.934Z,9.82
2022-12-08T03:19:01.672Z,7.68
2022-12-08T03:21:34.429Z,9.27
2022-12-08T03:24:05.240Z,8.63
2022-12-08T03:26:39.667Z,8.73
2022-12-08T03:29:08.001Z,8.02
2022-12-08T03:31:40.586Z,10.27
2022-12-08T03:34:11.052Z,10.10
2022-12-08T03:36:40.465Z,9.70
2022-12-08T03:39:08.532Z,10.05
2022-12-08T03:41:36.800Z,9.70
2022-12-08T03:44:05.249Z,11.50
2022-12-08T03:46:33.327Z,9.35
2022-12-08T03:49:01.355Z,10.30
2022-12-08T03:51:29.463Z,10.85
2022-12-08T03:53:58.910Z,10.90
2022-12-08T03:56:28.985Z,10.20
2022-12-08T03:58:57.025Z,10.18
2022-12-08T04:01:25.558Z,7.50
2022-12-08T04:03:53.695Z,7.88
2022-12-08T04:06:22.226Z,7.25
2022-12-08T04:08:51.121Z,8.10
2022-12-08T04:11:21.086Z,7.25
2022-12-08T04:13:49.279Z,8.40
2022-12-08T04:16:19.034Z,7.90
2022-12-08T04:18:47.572Z,7.65
2022-12-08T04:21:15.903Z,7.80
2022-12-08T04:23:44.317Z,8.30
2022-12-08T04:26:12.790Z,7.22
2022-12-08T04:28:42.384Z,7.68
2022-12-08T04:31:10.591Z,7.97
2022-12-08T04:33:38.967Z,8.35
2022-12-08T04:36:08.000Z,7.20
2022-12-08T04:38:36.056Z,6.30
2022-12-08T04:41:04.141Z,7.07
2022-12-08T04:43:32.238Z,7.07
2022-12-08T04:46:01.642Z,7.32
2022-12-08T04:48:29.687Z,7.82
2022-12-08T04:50:57.659Z,7.60
2022-12-08T04:53:26.654Z,7.50
2022-12-08T04:55:54.782Z,7.88
2022-12-08T04:58:22.920Z,8.10
2022-12-08T05:00:51.466Z,7.97
2022-12-08T05:03:26.851Z,6.95
2022-12-08T05:05:56.985Z,9.50
2022-12-08T05:08:25.127Z,7.00
2022-12-08T05:10:53.558Z,7.85
2022-12-08T05:13:21.544Z,6.93
2022-12-08T05:15:49.684Z,8.23
2022-12-08T05:18:17.687Z,7.22
2022-12-08T05:20:47.105Z,7.18
2022-12-08T05:23:15.172Z,6.80
2022-12-08T05:25:43.192Z,6.53
2022-12-08T05:28:40.246Z,6.88
2022-12-08T05:31:01.192Z,5.95
2022-12-08T05:33:29.193Z,6.28
2022-12-08T05:35:58.557Z,6.60
2022-12-08T05:38:26.588Z,6.22
2022-12-08T05:40:54.610Z,5.50
2022-12-08T05:43:22.650Z,5.40
2022-12-08T05:45:51.404Z,5.90
2022-12-08T05:48:19.613Z,6.53
2022-12-08T05:50:48.772Z,5.75
2022-12-08T05:53:19.604Z,5.80
2022-12-08T05:55:48.551Z,5.68
2022-12-08T05:58:18.457Z,4.88
2022-12-08T06:00:47.099Z,5.10
2022-12-08T06:03:16.946Z,4.38
2022-12-08T06:05:46.980Z,4.75
2022-12-08T06:08:15.223Z,5.40
2022-12-08T06:10:45.855Z,5.03
2022-12-08T06:13:14.044Z,4.63
2022-12-08T06:15:42.763Z,5.22
2022-12-08T06:18:12.092Z,4.95
2022-12-08T06:20:40.105Z,4.15
2022-12-08T06:23:08.109Z,5.53
2022-12-08T06:25:36.137Z,5.50
2022-12-08T06:28:08.480Z,4.93
2022-12-08T06:30:36.558Z,6.20
2022-12-08T06:33:04.733Z,5.47
2022-12-08T06:35:32.729Z,4.10
2022-12-08T06:38:00.872Z,5.18
2022-12-08T06:40:28.871Z,5.05
2022-12-08T06:42:56.947Z,4.85
2022-12-08T06:45:26.421Z,5.90
2022-12-08T06:47:54.484Z,5.75
2022-12-08T06:50:22.725Z,6.72
2022-12-08T06:53:01.125Z,7.25
2022-12-08T06:58:21.706Z,6.43
2022-12-08T07:00:51.166Z,7.53
2022-12-08T07:03:19.605Z,7.68
2022-12-08T07:05:47.935Z,7.70
2022-12-08T07:08:16.352Z,7.75
2022-12-08T07:10:44.481Z,8.85
2022-12-08T07:13:12.551Z,8.13
2022-12-08T07:15:40.534Z,8.05
2022-12-08T07:18:09.928Z,9.38
2022-12-08T07:20:38.114Z,8.82
2022-12-08T07:23:06.137Z,8.32
2022-12-08T07:25:34.229Z,8.90
2022-12-08T07:28:02.314Z,8.85
2022-12-08T07:30:30.460Z,9.48
2022-12-08T07:32:58.549Z,9.30
2022-12-08T07:35:28.167Z,10.10
2022-12-08T07:37:57.659Z,10.05
2022-12-08T07:40:25.729Z,10.10
2022-12-08T07:42:53.780Z,15.13
2022-12-08T07:45:23.650Z,11.02
2022-12-08T07:47:56.473Z,12.13
2022-12-08T07:50:24.607Z,11.45
2022-12-08T07:52:53.958Z,13.82
2022-12-08T07:55:21.973Z,12.48
2022-12-08T07:57:51.439Z,16.88
2022-12-08T08:00:20.277Z,12.70
2022-12-08T08:02:48.399Z,14.48
2022-12-08T08:05:16.443Z,12.02
2022-12-08T08:07:46.551Z,11.82
2022-12-08T08:10:15.910Z,13.32
2022-12-08T08:12:43.924Z,14.75
2022-12-08T08:15:12.740Z,13.80
2022-12-08T08:17:40.952Z,11.27
2022-12-08T08:20:09.996Z,12.52
2022-12-08T08:22:38.203Z,13.60
2022-12-08T08:25:06.819Z,10.70
2022-12-08T08:27:36.213Z,13.60
2022-12-08T08:30:04.832Z,11.40
2022-12-08T08:32:34.694Z,14.77
2022-12-08T08:35:02.953Z,14.20
2022-12-08T08:37:31.000Z,13.68
2022-12-08T08:39:59.028Z,12.10
2022-12-08T08:42:27.193Z,15.77
2022-12-08T08:44:56.568Z,15.23
2022-12-08T08:47:24.791Z,12.98
2022-12-08T08:49:52.983Z,11.27
2022-12-08T08:52:21.076Z,15.77
2022-12-08T08:54:49.217Z,14.05
2022-12-08T08:57:23.618Z,11.88
2022-12-08T08:59:53.501Z,11.20
2022-12-08T09:02:23.204Z,11.05
2022-12-08T09:04:51.311Z,11.57
2022-12-08T09:07:19.604Z,10.88
2022-12-08T09:09:47.620Z,17.52
2022-12-08T09:12:15.890Z,11.63
2022-12-08T09:14:43.986Z,10.70
2022-12-08T09:17:11.964Z,13.10
2022-12-08T09:19:41.398Z,13.13
2022-12-08T09:22:09.459Z,11.13
2022-12-08T09:24:37.466Z,10.57
2022-12-08T09:27:05.575Z,9.45
2022-12-08T09:29:36.231Z,13.50
2022-12-08T09:32:04.816Z,10.50
2022-12-08T09:34:32.982Z,8.43
2022-12-08T09:37:02.590Z,8.27
2022-12-08T09:39:30.665Z,9.73
2022-12-08T09:42:02.019Z,8.93
2022-12-08T09:44:48.419Z,8.18
2022-12-08T09:47:23.151Z,8.02
2022-12-08T09:49:57.725Z,6.43
2022-12-08T09:52:33.488Z,6.13
2022-12-08T09:55:05.709Z,6.85
2022-12-08T09:57:33.788Z,7.35
2022-12-08T10:00:06.064Z,6.43
2022-12-08T10:02:34.872Z,6.47
2022-12-08T10:05:03.048Z,5.97
2022-12-08T10:07:44.022Z,7.32
2022-12-08T10:10:27.347Z,5.60
2022-12-08T10:13:00.364Z,5.90
2022-12-08T10:15:42.019Z,5.85
2022-12-08T10:18:16.739Z,5.80
2022-12-08T10:20:47.332Z,6.07
2022-12-08T10:23:25.697Z,5.90
2022-12-08T10:25:58.935Z,6.75
2022-12-08T10:28:27.099Z,6.95
2022-12-08T10:30:55.347Z,7.10
2022-12-08T10:33:23.696Z,6.15
2022-12-08T10:35:52.980Z,6.40
2022-12-08T10:38:27.157Z,5.85
2022-12-08T10:41:01.980Z,7.22
2022-12-08T10:43:30.263Z,6.65
2022-12-08T10:46:09.890Z,6.78
2022-12-08T10:48:38.020Z,6.40
2022-12-08T10:51:06.146Z,6.20
2022-12-08T10:53:45.437Z,6.65
2022-12-08T10:56:16.815Z,6.78
2022-12-08T10:58:46.315Z,5.85
2022-12-08T11:01:18.319Z,6.50
2022-12-08T11:03:51.668Z,6.75
2022-12-08T11:06:22.304Z,6.90
2022-12-08T11:08:54.482Z,7.05
2022-12-08T11:11:37.934Z,7.15
2022-12-08T11:14:08.727Z,7.63
2022-12-08T11:16:37.370Z,7.85
2022-12-08T11:19:07.405Z,8.00
2022-12-08T11:21:38.488Z,7.03
2022-12-08T11:24:31.306Z,7.72
2022-12-08T11:27:05.542Z,7.72
2022-12-08T11:29:35.400Z,7.70
2022-12-08T11:32:07.053Z,7.25
2022-12-08T11:34:40.353Z,8.70
2022-12-08T11:37:13.875Z,7.57
2022-12-08T11:39:47.510Z,8.00
2022-12-08T11:42:18.595Z,8.18
2022-12-08T11:44:51.636Z,7.00
2022-12-08T11:47:25.514Z,7.13
2022-12-08T11:49:57.381Z,8.70
2022-12-08T11:52:31.463Z,7.95
2022-12-08T11:55:06.863Z,6.18
2022-12-08T11:57:35.082Z,7.32
2022-12-08T12:00:04.511Z,7.25
2022-12-08T12:02:46.852Z,6.75
2022-12-08T12:05:47.506Z,6.97
2022-12-08T12:08:33.524Z,6.25
2022-12-08T12:11:10.147Z,9.48
2022-12-08T12:13:55.289Z,7.57
2022-12-08T12:16:47.170Z,5.80
2022-12-08T12:19:18.593Z,6.38
2022-12-08T12:21:50.681Z,6.60
2022-12-08T12:24:26.585Z,7.22
2022-12-08T12:27:01.547Z,5.88
2022-12-08T12:29:31.092Z,4.85
2022-12-08T12:32:02.176Z,5.60
2022-12-08T12:34:32.601Z,3.85
2022-12-08T12:37:10.488Z,4.00
2022-12-08T12:39:51.208Z,4.50
2022-12-08T12:42:45.514Z,4.28
2022-12-08T12:45:27.825Z,4.18
2022-12-08T12:48:15.121Z,3.80
2022-12-08T12:50:44.663Z,3.72
2022-12-08T12:53:51.893Z,3.67
2022-12-08T12:56:48.437Z,3.38
2022-12-08T12:59:51.640Z,4.45
2022-12-08T13:02:27.430Z,4.47
2022-12-08T13:05:03.074Z,4.25
2022-12-08T13:07:34.046Z,5.45
2022-12-08T13:10:12.841Z,3.95
2022-12-08T13:12:40.916Z,4.40
2022-12-08T13:15:19.433Z,4.13
2022-12-08T13:17:49.980Z,4.40
2022-12-08T13:20:24.601Z,4.65
2022-12-08T13:23:28.874Z,3.88
2022-12-08T13:26:20.061Z,5.78
2022-12-08T13:29:16.134Z,5.20
2022-12-08T13:31:50.924Z,5.35
2022-12-08T13:34:29.876Z,5.40
2022-12-08T13:37:18.774Z,5.70
2022-12-08T13:39:52.824Z,5.32
2022-12-08T13:42:25.965Z,5.00
2022-12-08T13:48:21.720Z,5.18
2022-12-08T13:54:45.541Z,6.68
2022-12-08T13:57:02.435Z,3.72
2022-12-08T13:59:30.501Z,4.05
2022-12-08T14:02:02.337Z,4.28
2022-12-08T14:04:54.296Z,4.22
2022-12-08T14:07:20.571Z,3.90
2022-12-08T14:09:49.197Z,3.17
2022-12-08T14:12:22.062Z,3.60
2022-12-08T14:15:08.340Z,3.28
2022-12-08T14:17:36.566Z,3.67
2022-12-08T14:20:24.277Z,3.42
2022-12-08T14:22:52.957Z,3.13
2022-12-08T14:25:22.721Z,3.47
2022-12-08T14:27:51.417Z,3.70
2022-12-08T14:30:22.412Z,3.92
2022-12-08T14:32:53.481Z,3.47
2022-12-08T14:35:26.504Z,4.40
2022-12-08T14:37:57.036Z,3.58
2022-12-08T14:40:30.111Z,4.47
2022-12-08T14:43:13.649Z,4.20
2022-12-08T14:45:48.975Z,5.28
2022-12-08T14:48:25.360Z,4.80
2022-12-08T14:51:06.175Z,4.43
2022-12-08T14:53:40.508Z,3.85
2022-12-08T14:56:14.866Z,3.65
2022-12-08T14:58:43.155Z,4.78
2022-12-08T15:01:14.330Z,4.63
2022-12-08T15:03:47.230Z,4.63
2022-12-08T15:06:22.382Z,7.10
2022-12-08T15:08:58.474Z,9.38
2022-12-08T15:11:34.913Z,7.20
2022-12-08T15:14:03.158Z,6.63
2022-12-08T15:16:38.580Z,5.97
2022-12-08T15:19:17.632Z,6.25
2022-12-08T15:21:47.860Z,5.47
2022-12-08T15:24:16.672Z,7.95
2022-12-08T15:26:47.094Z,9.02
2022-12-08T15:29:21.249Z,13.10
2022-12-08T15:31:49.486Z,19.35
2022-12-08T15:34:17.566Z,9.40
2022-12-08T15:36:47.230Z,5.85
2022-12-08T15:39:26.109Z,6.75
2022-12-08T15:41:54.331Z,7.22
2022-12-08T15:44:22.796Z,6.32
2022-12-08T15:46:51.099Z,6.28
2022-12-08T15:49:21.017Z,7.25
2022-12-08T15:51:53.575Z,5.78
2022-12-08T15:54:24.636Z,6.70
2022-12-08T15:57:18.667Z,6.75
2022-12-08T15:59:44.471Z,7.25
2022-12-08T16:02:18.026Z,7.43
2022-12-08T16:07:40.836Z,6.38
2022-12-08T16:10:16.206Z,6.90
2022-12-08T16:15:59.220Z,6.15
2022-12-08T16:18:29.854Z,6.18
2022-12-08T16:21:31.499Z,7.22
2022-12-08T16:23:47.803Z,8.82
2022-12-08T16:26:31.789Z,6.38
2022-12-08T16:29:06.609Z,8.10
2022-12-08T16:31:34.738Z,12.63
2022-12-08T16:34:03.880Z,11.38
2022-12-08T16:36:31.981Z,11.18
2022-12-08T16:39:01.376Z,10.07
2022-12-08T16:41:58.308Z,9.05
2022-12-08T16:44:27.596Z,9.65
2022-12-08T16:46:55.648Z,8.80
2022-12-08T16:49:23.686Z,9.82
2022-12-08T16:51:51.751Z,8.93
2022-12-08T16:54:21.081Z,10.80
2022-12-08T16:56:49.346Z,11.07
2022-12-08T16:59:17.349Z,9.18
2022-12-08T17:01:45.387Z,8.70
2022-12-08T17:07:01.752Z,8.60
2022-12-08T17:09:32.408Z,8.15
2022-12-08T17:12:04.062Z,9.20
2022-12-08T17:14:34.792Z,8.32
2022-12-08T17:17:03.043Z,9.73
2022-12-08T17:19:31.232Z,9.07
2022-12-08T17:21:59.246Z,8.05
2022-12-08T17:24:29.076Z,7.80
2022-12-08T17:27:03.824Z,4.82
2022-12-08T17:29:32.238Z,5.00
2022-12-08T17:32:00.530Z,5.13
2022-12-08T17:34:28.654Z,5.07
2022-12-08T17:36:56.963Z,5.25
2022-12-08T17:39:25.258Z,4.97
2022-12-08T17:41:53.292Z,6.43
2022-12-08T17:44:22.952Z,5.40
2022-12-08T17:46:53.316Z,5.90
2022-12-08T17:49:23.323Z,5.97
2022-12-08T17:51:53.317Z,5.35
2022-12-08T17:54:21.884Z,5.47
2022-12-08T17:56:50.053Z,5.75
2022-12-08T17:59:18.246Z,5.57
2022-12-08T18:01:47.915Z,8.53
2022-12-08T18:04:16.020Z,9.18
2022-12-08T18:06:44.061Z,8.67
2022-12-08T18:09:12.248Z,10.10
2022-12-08T18:11:40.581Z,9.63
2022-12-08T18:14:10.435Z,7.87
2022-12-08T18:16:40.039Z,8.35
2022-12-08T18:19:10.206Z,7.57
2022-12-08T18:21:38.650Z,7.47
2022-12-08T18:24:07.686Z,7.90
2022-12-08T18:26:35.956Z,8.03
2022-12-08T18:29:04.544Z,6.77
2022-12-08T18:31:32.779Z,6.87
2022-12-08T18:34:00.799Z,7.95
2022-12-08T18:36:30.190Z,8.50
2022-12-08T18:38:58.662Z,8.10
2022-12-08T18:41:28.253Z,7.30
2022-12-08T18:43:57.300Z,6.53
2022-12-08T18:46:26.403Z,7.60
2022-12-08T18:48:54.549Z,6.60
2022-12-08T18:51:24.607Z,6.50
2022-12-08T18:53:54.289Z,7.40
2022-12-08T18:56:24.896Z,6.97
2022-12-08T18:58:54.644Z,6.93
2022-12-08T19:01:25.388Z,7.70
2022-12-08T19:04:19.835Z,6.65
2022-12-08T19:06:42.499Z,6.43
2022-12-08T19:09:14.063Z,5.43
2022-12-08T19:11:42.938Z,5.87
2022-12-08T19:14:11.602Z,6.00
2022-12-08T19:16:40.230Z,6.57
2022-12-08T19:19:08.308Z,6.97
2022-12-08T19:21:41.524Z,6.30
2022-12-08T19:24:15.441Z,6.37
2022-12-08T19:26:43.886Z,5.37
2022-12-08T19:29:12.910Z,5.63
2022-12-08T19:31:41.784Z,5.57
2022-12-08T19:34:11.224Z,5.67
2022-12-08T19:36:42.462Z,5.47
2022-12-08T19:39:35.406Z,5.10
2022-12-08T19:42:21.257Z,5.30
2022-12-08T19:44:55.303Z,5.77
2022-12-08T19:47:24.857Z,6.03
2022-12-08T19:49:53.894Z,6.63
2022-12-08T19:52:22.394Z,5.93
2022-12-08T19:54:51.876Z,5.50
2022-12-08T19:57:20.425Z,5.67
2022-12-08T19:59:53.111Z,7.03
2022-12-08T20:02:24.330Z,7.97
2022-12-08T20:04:52.603Z,8.50
2022-12-08T20:07:20.715Z,8.43
2022-12-08T20:09:48.751Z,9.33
2022-12-08T20:12:18.128Z,10.93
2022-12-08T20:14:46.606Z,14.47
2022-12-08T20:17:14.742Z,12.47
2022-12-08T20:19:43.513Z,16.57
2022-12-08T20:22:11.577Z,15.37
2022-12-08T20:24:39.641Z,15.97
2022-12-08T20:27:07.841Z,15.10
2022-12-08T20:29:37.256Z,13.67
2022-12-08T20:32:06.097Z,12.80
2022-12-08T20:34:34.619Z,13.67
2022-12-08T20:37:02.753Z,11.83
2022-12-08T20:39:30.807Z,13.60
2022-12-08T20:42:00.050Z,13.73
2022-12-08T20:44:29.279Z,13.97
2022-12-08T20:46:58.787Z,15.70
2022-12-08T20:49:31.240Z,16.63
2022-12-08T20:52:03.219Z,16.90
2022-12-08T20:54:31.359Z,18.43
2022-12-08T20:56:59.602Z,19.70
2022-12-08T20:59:27.838Z,19.90
2022-12-08T21:01:56.352Z,19.80
2022-12-08T21:04:25.992Z,19.50
2022-12-08T21:06:54.226Z,20.20
2022-12-08T21:09:22.630Z,21.77
2022-12-08T21:11:50.985Z,21.00
2022-12-08T21:14:19.199Z,21.47
2022-12-08T21:16:47.358Z,21.40
2022-12-08T21:19:15.730Z,19.53
2022-12-08T21:21:45.817Z,18.97
2022-12-08T21:24:15.514Z,18.77
2022-12-08T21:26:44.510Z,19.50
2022-12-08T21:29:13.464Z,21.07
2022-12-08T21:31:41.812Z,19.37
2022-12-08T21:34:12.127Z,20.97
2022-12-08T21:36:40.324Z,20.63
2022-12-08T21:39:12.759Z,21.80
2022-12-08T21:41:58.864Z,23.00
2022-12-08T21:44:27.449Z,24.57
2022-12-08T21:46:55.617Z,24.23
2022-12-08T21:49:23.850Z,23.43
2022-12-08T21:51:51.902Z,24.40
2022-12-08T21:54:21.523Z,27.23
2022-12-08T21:56:50.546Z,28.23
2022-12-08T21:59:19.693Z,30.90
2022-12-08T22:01:48.047Z,30.30
2022-12-08T22:04:19.016Z,30.23
2022-12-08T22:06:47.414Z,30.13
2022-12-08T22:09:15.674Z,27.77
2022-12-08T22:11:45.592Z,27.50
2022-12-08T22:14:15.122Z,31.73
2022-12-08T22:16:44.107Z,30.73
2022-12-08T22:19:13.102Z,27.80
2022-12-08T22:21:41.668Z,21.90
2022-12-08T22:24:10.381Z,24.37
2022-12-08T22:26:38.615Z,23.80
2022-12-08T22:29:08.506Z,22.17
2022-12-08T22:31:37.300Z,25.77
2022-12-08T22:34:06.266Z,27.47
2022-12-08T22:36:34.572Z,28.37
2022-12-08T22:39:04.729Z,29.77
2022-12-08T22:41:34.080Z,28.93
2022-12-08T22:44:02.411Z,30.97
2022-12-08T22:46:32.582Z,27.17
2022-12-08T22:49:00.915Z,28.43
2022-12-08T22:51:29.118Z,29.00
2022-12-08T22:53:57.424Z,31.17
2022-12-08T22:56:25.510Z,30.87
2022-12-08T22:58:53.736Z,29.07
2022-12-08T23:01:26.697Z,30.17
2022-12-08T23:03:56.668Z,29.50
2022-12-08T23:06:25.635Z,30.87
2022-12-08T23:08:54.818Z,33.93
2022-12-08T23:11:26.269Z,32.97
2022-12-08T23:13:55.921Z,33.87
2022-12-08T23:16:24.090Z,34.30
2022-12-08T23:18:52.302Z,35.10
2022-12-08T23:21:22.203Z,33.87
2022-12-08T23:23:50.489Z,25.67
2022-12-08T23:26:21.589Z,26.97
2022-12-08T23:28:50.128Z,26.60
2022-12-08T23:31:18.467Z,25.00
2022-12-08T23:33:47.115Z,27.90
2022-12-08T23:36:16.101Z,28.57
2022-12-08T23:38:45.607Z,27.93
2022-12-08T23:41:15.141Z,28.67
2022-12-08T23:43:46.264Z,31.27
2022-12-08T23:46:14.991Z,31.90
2022-12-08T23:48:43.397Z,27.83
2022-12-08T23:51:12.637Z,28.67
2022-12-08T23:53:41.613Z,27.43
2022-12-08T23:56:12.996Z,30.53
2022-12-08T23:58:42.202Z,29.07
